sensor_id;sensor_type;location;lat;lon;timestamp;temperature;humidity
24250;DHT22;12379;49.820;8.648;2023-03-20T00:00:46;9.60;99.90
24250;DHT22;12379;49.820;8.648;2023-03-20T00:03:13;9.70;99.90
24250;DHT22;12379;49.820;8.648;2023-03-20T00:05:39;9.70;99.90
24250;DHT22;12379;49.820;8.648;2023-03-20T00:08:05;9.70;99.90
24250;DHT22;12379;49.820;8.648;2023-03-20T00:10:35;9.70;99.90
24250;DHT22;12379;49.820;8.648;2023-03-20T00:13:03;9.80;99.90
24250;DHT22;12379;49.820;8.648;2023-03-20T00:15:35;9.80;99.90
24250;DHT22;12379;49.820;8.648;2023-03-20T00:18:02;9.80;99.90
24250;DHT22;12379;49.820;8.648;2023-03-20T00:20:28;9.80;99.90
24250;DHT22;12379;49.820;8.648;2023-03-20T00:22:54;9.90;99.90
24250;DHT22;12379;49.820;8.648;2023-03-20T00:25:22;9.90;99.90
24250;DHT22;12379;49.820;8.648;2023-03-20T00:27:48;9.90;99.90
24250;DHT22;12379;49.820;8.648;2023-03-20T00:30:21;9.90;99.90
24250;DHT22;12379;49.820;8.648;2023-03-20T00:32:48;9.90;99.90
24250;DHT22;12379;49.820;8.648;2023-03-20T00:35:20;10.00;99.90
24250;DHT22;12379;49.820;8.648;2023-03-20T00:37:47;10.00;99.90
24250;DHT22;12379;49.820;8.648;2023-03-20T00:40:13;10.00;99.90
24250;DHT22;12379;49.820;8.648;2023-03-20T00:42:39;10.10;99.90
24250;DHT22;12379;49.820;8.648;2023-03-20T00:45:05;10.00;99.90
24250;DHT22;12379;49.820;8.648;2023-03-20T00:47:33;9.90;99.90
24250;DHT22;12379;49.820;8.648;2023-03-20T00:50:01;10.00;99.90
24250;DHT22;12379;49.820;8.648;2023-03-20T00:52:27;9.90;99.90
24250;DHT22;12379;49.820;8.648;2023-03-20T00:54:52;9.90;99.90
24250;DHT22;12379;49.820;8.648;2023-03-20T00:57:22;9.90;99.90
24250;DHT22;12379;49.820;8.648;2023-03-20T00:59:58;9.80;99.90
24250;DHT22;12379;49.820;8.648;2023-03-20T01:02:27;9.80;99.90
24250;DHT22;12379;49.820;8.648;2023-03-20T01:04:53;9.80;99.90
24250;DHT22;12379;49.820;8.648;2023-03-20T01:07:19;9.90;99.90
24250;DHT22;12379;49.820;8.648;2023-03-20T01:09:45;9.90;99.90
24250;DHT22;12379;49.820;8.648;2023-03-20T01:12:12;9.90;99.90
24250;DHT22;12379;49.820;8.648;2023-03-20T01:14:38;10.00;99.90
24250;DHT22;12379;49.820;8.648;2023-03-20T01:17:04;10.00;99.90
24250;DHT22;12379;49.820;8.648;2023-03-20T01:19:30;10.00;99.90
24250;DHT22;12379;49.820;8.648;2023-03-20T01:21:56;9.90;99.90
24250;DHT22;12379;49.820;8.648;2023-03-20T01:24:21;10.00;99.90
24250;DHT22;12379;49.820;8.648;2023-03-20T01:26:47;9.90;99.90
24250;DHT22;12379;49.820;8.648;2023-03-20T01:29:26;9.90;99.90
24250;DHT22;12379;49.820;8.648;2023-03-20T01:31:52;9.90;99.90
24250;DHT22;12379;49.820;8.648;2023-03-20T01:34:18;9.80;99.90
24250;DHT22;12379;49.820;8.648;2023-03-20T01:36:49;9.80;99.90
24250;DHT22;12379;49.820;8.648;2023-03-20T01:39:16;9.80;99.90
24250;DHT22;12379;49.820;8.648;2023-03-20T01:41:43;9.80;99.90
24250;DHT22;12379;49.820;8.648;2023-03-20T01:44:28;9.80;99.90
24250;DHT22;12379;49.820;8.648;2023-03-20T01:46:54;9.80;99.90
24250;DHT22;12379;49.820;8.648;2023-03-20T01:51:47;9.80;99.90
24250;DHT22;12379;49.820;8.648;2023-03-20T01:54:20;9.80;99.90
24250;DHT22;12379;49.820;8.648;2023-03-20T01:56:51;9.90;99.90
24250;DHT22;12379;49.820;8.648;2023-03-20T01:59:23;9.90;99.90
24250;DHT22;12379;49.820;8.648;2023-03-20T02:01:51;9.90;99.90
24250;DHT22;12379;49.820;8.648;2023-03-20T02:04:18;10.00;99.90
24250;DHT22;12379;49.820;8.648;2023-03-20T02:06:45;9.90;99.90
24250;DHT22;12379;49.820;8.648;2023-03-20T02:09:11;10.00;99.90
24250;DHT22;12379;49.820;8.648;2023-03-20T02:11:38;10.00;99.90
24250;DHT22;12379;49.820;8.648;2023-03-20T02:14:05;10.00;99.90
24250;DHT22;12379;49.820;8.648;2023-03-20T02:16:31;10.00;99.90
24250;DHT22;12379;49.820;8.648;2023-03-20T02:18:57;9.90;99.90
24250;DHT22;12379;49.820;8.648;2023-03-20T02:33:12;9.80;99.90
24250;DHT22;12379;49.820;8.648;2023-03-20T02:36:23;9.70;99.90
24250;DHT22;12379;49.820;8.648;2023-03-20T02:39:17;9.70;99.90
24250;DHT22;12379;49.820;8.648;2023-03-20T02:44:43;9.70;99.90
24250;DHT22;12379;49.820;8.648;2023-03-20T02:47:31;9.70;99.90
24250;DHT22;12379;49.820;8.648;2023-03-20T02:50:12;9.70;99.90
24250;DHT22;12379;49.820;8.648;2023-03-20T02:55:45;9.80;99.90
24250;DHT22;12379;49.820;8.648;2023-03-20T02:58:29;9.80;99.90
24250;DHT22;12379;49.820;8.648;2023-03-20T03:01:16;9.80;99.90
24250;DHT22;12379;49.820;8.648;2023-03-20T03:04:07;9.90;99.90
24250;DHT22;12379;49.820;8.648;2023-03-20T03:06:36;9.80;99.90
24250;DHT22;12379;49.820;8.648;2023-03-20T03:11:47;9.90;99.90
24250;DHT22;12379;49.820;8.648;2023-03-20T03:14:26;9.80;99.90
24250;DHT22;12379;49.820;8.648;2023-03-20T03:16:54;9.80;99.90
24250;DHT22;12379;49.820;8.648;2023-03-20T03:19:22;9.90;99.90
24250;DHT22;12379;49.820;8.648;2023-03-20T03:21:49;9.90;99.90
24250;DHT22;12379;49.820;8.648;2023-03-20T03:24:37;9.80;99.90
24250;DHT22;12379;49.820;8.648;2023-03-20T03:27:20;9.80;99.90
24250;DHT22;12379;49.820;8.648;2023-03-20T03:29:57;9.80;99.90
24250;DHT22;12379;49.820;8.648;2023-03-20T03:32:39;10.00;99.90
24250;DHT22;12379;49.820;8.648;2023-03-20T03:35:12;10.00;99.90
24250;DHT22;12379;49.820;8.648;2023-03-20T03:37:41;10.00;99.90
24250;DHT22;12379;49.820;8.648;2023-03-20T03:40:15;10.00;99.90
24250;DHT22;12379;49.820;8.648;2023-03-20T03:43:07;10.00;99.90
24250;DHT22;12379;49.820;8.648;2023-03-20T03:45:38;10.00;99.90
24250;DHT22;12379;49.820;8.648;2023-03-20T03:48:20;9.90;99.90
24250;DHT22;12379;49.820;8.648;2023-03-20T03:50:56;9.80;99.90
24250;DHT22;12379;49.820;8.648;2023-03-20T03:53:26;9.90;99.90
24250;DHT22;12379;49.820;8.648;2023-03-20T03:55:58;9.90;99.90
24250;DHT22;12379;49.820;8.648;2023-03-20T03:58:29;9.90;99.90
24250;DHT22;12379;49.820;8.648;2023-03-20T04:00:58;9.90;99.90
24250;DHT22;12379;49.820;8.648;2023-03-20T04:03:30;9.90;99.90
24250;DHT22;12379;49.820;8.648;2023-03-20T04:05:57;10.00;99.90
24250;DHT22;12379;49.820;8.648;2023-03-20T04:08:23;10.10;99.90
24250;DHT22;12379;49.820;8.648;2023-03-20T04:10:49;10.00;99.90
24250;DHT22;12379;49.820;8.648;2023-03-20T04:13:15;10.00;99.90
24250;DHT22;12379;49.820;8.648;2023-03-20T04:15:41;10.00;99.90
24250;DHT22;12379;49.820;8.648;2023-03-20T04:18:08;10.20;99.90
24250;DHT22;12379;49.820;8.648;2023-03-20T04:20:38;10.20;99.90
24250;DHT22;12379;49.820;8.648;2023-03-20T04:23:04;10.20;99.90
24250;DHT22;12379;49.820;8.648;2023-03-20T04:25:30;10.20;99.90
24250;DHT22;12379;49.820;8.648;2023-03-20T04:27:55;10.30;99.90
24250;DHT22;12379;49.820;8.648;2023-03-20T04:30:21;10.10;99.90
24250;DHT22;12379;49.820;8.648;2023-03-20T04:32:46;10.10;99.90
24250;DHT22;12379;49.820;8.648;2023-03-20T04:35:12;10.10;99.90
24250;DHT22;12379;49.820;8.648;2023-03-20T04:37:37;10.20;99.90
24250;DHT22;12379;49.820;8.648;2023-03-20T04:40:03;10.10;99.90
24250;DHT22;12379;49.820;8.648;2023-03-20T04:42:29;10.00;99.90
24250;DHT22;12379;49.820;8.648;2023-03-20T04:44:54;10.10;99.90
24250;DHT22;12379;49.820;8.648;2023-03-20T04:47:20;10.10;99.90
24250;DHT22;12379;49.820;8.648;2023-03-20T04:49:45;10.10;99.90
24250;DHT22;12379;49.820;8.648;2023-03-20T04:52:11;10.10;99.90
24250;DHT22;12379;49.820;8.648;2023-03-20T04:54:36;10.00;99.90
24250;DHT22;12379;49.820;8.648;2023-03-20T04:57:02;10.00;99.90
24250;DHT22;12379;49.820;8.648;2023-03-20T04:59:28;9.90;99.90
24250;DHT22;12379;49.820;8.648;2023-03-20T05:01:53;10.00;99.90
24250;DHT22;12379;49.820;8.648;2023-03-20T05:04:19;10.00;99.90
24250;DHT22;12379;49.820;8.648;2023-03-20T05:06:44;9.90;99.90
24250;DHT22;12379;49.820;8.648;2023-03-20T05:09:13;9.90;99.90
24250;DHT22;12379;49.820;8.648;2023-03-20T05:11:39;10.00;99.90
24250;DHT22;12379;49.820;8.648;2023-03-20T05:14:05;10.00;99.90
24250;DHT22;12379;49.820;8.648;2023-03-20T05:16:31;10.00;99.90
24250;DHT22;12379;49.820;8.648;2023-03-20T05:18:57;10.00;99.90
24250;DHT22;12379;49.820;8.648;2023-03-20T05:21:23;10.10;99.90
24250;DHT22;12379;49.820;8.648;2023-03-20T05:23:48;10.00;99.90
24250;DHT22;12379;49.820;8.648;2023-03-20T05:26:14;10.00;99.90
24250;DHT22;12379;49.820;8.648;2023-03-20T05:28:39;10.00;99.90
24250;DHT22;12379;49.820;8.648;2023-03-20T05:31:05;10.00;99.90
24250;DHT22;12379;49.820;8.648;2023-03-20T05:33:31;10.00;99.90
24250;DHT22;12379;49.820;8.648;2023-03-20T05:35:56;10.10;99.90
24250;DHT22;12379;49.820;8.648;2023-03-20T05:38:22;10.10;99.90
24250;DHT22;12379;49.820;8.648;2023-03-20T05:40:48;10.10;99.90
24250;DHT22;12379;49.820;8.648;2023-03-20T05:43:14;10.20;99.90
24250;DHT22;12379;49.820;8.648;2023-03-20T05:45:41;10.30;99.90
24250;DHT22;12379;49.820;8.648;2023-03-20T05:48:07;10.30;99.90
24250;DHT22;12379;49.820;8.648;2023-03-20T05:50:32;10.40;99.90
24250;DHT22;12379;49.820;8.648;2023-03-20T05:52:58;10.50;99.90
24250;DHT22;12379;49.820;8.648;2023-03-20T05:55:23;10.40;99.90
24250;DHT22;12379;49.820;8.648;2023-03-20T05:57:49;10.50;99.90
24250;DHT22;12379;49.820;8.648;2023-03-20T06:00:15;10.30;99.90
24250;DHT22;12379;49.820;8.648;2023-03-20T06:02:40;10.20;99.90
24250;DHT22;12379;49.820;8.648;2023-03-20T06:05:06;10.30;99.90
24250;DHT22;12379;49.820;8.648;2023-03-20T06:07:32;10.40;99.90
24250;DHT22;12379;49.820;8.648;2023-03-20T06:09:57;10.40;99.90
24250;DHT22;12379;49.820;8.648;2023-03-20T06:12:23;10.30;99.90
24250;DHT22;12379;49.820;8.648;2023-03-20T06:14:48;10.80;99.90
24250;DHT22;12379;49.820;8.648;2023-03-20T06:17:14;11.30;99.90
24250;DHT22;12379;49.820;8.648;2023-03-20T06:19:40;11.30;99.90
24250;DHT22;12379;49.820;8.648;2023-03-20T06:22:05;11.00;99.90
24250;DHT22;12379;49.820;8.648;2023-03-20T06:24:31;10.80;99.90
24250;DHT22;12379;49.820;8.648;2023-03-20T06:26:57;10.80;99.90
24250;DHT22;12379;49.820;8.648;2023-03-20T06:29:23;10.60;99.90
24250;DHT22;12379;49.820;8.648;2023-03-20T06:31:49;10.60;99.90
24250;DHT22;12379;49.820;8.648;2023-03-20T06:34:14;10.60;99.90
24250;DHT22;12379;49.820;8.648;2023-03-20T06:36:40;10.60;99.90
24250;DHT22;12379;49.820;8.648;2023-03-20T06:39:06;10.60;99.90
24250;DHT22;12379;49.820;8.648;2023-03-20T06:41:32;10.50;99.90
24250;DHT22;12379;49.820;8.648;2023-03-20T06:43:58;10.50;99.90
24250;DHT22;12379;49.820;8.648;2023-03-20T06:46:24;10.50;99.90
24250;DHT22;12379;49.820;8.648;2023-03-20T06:48:49;10.50;99.90
24250;DHT22;12379;49.820;8.648;2023-03-20T06:51:15;10.40;99.90
24250;DHT22;12379;49.820;8.648;2023-03-20T06:53:41;10.40;99.90
24250;DHT22;12379;49.820;8.648;2023-03-20T06:56:09;10.40;99.90
24250;DHT22;12379;49.820;8.648;2023-03-20T06:58:35;10.40;99.90
24250;DHT22;12379;49.820;8.648;2023-03-20T07:01:01;10.40;99.90
24250;DHT22;12379;49.820;8.648;2023-03-20T07:03:27;10.30;99.90
24250;DHT22;12379;49.820;8.648;2023-03-20T07:05:52;10.30;99.90
24250;DHT22;12379;49.820;8.648;2023-03-20T07:08:19;10.50;99.90
24250;DHT22;12379;49.820;8.648;2023-03-20T07:10:45;10.50;99.90
24250;DHT22;12379;49.820;8.648;2023-03-20T07:13:11;10.70;99.90
24250;DHT22;12379;49.820;8.648;2023-03-20T07:15:37;10.70;99.90
24250;DHT22;12379;49.820;8.648;2023-03-20T07:18:02;10.80;99.90
24250;DHT22;12379;49.820;8.648;2023-03-20T07:23:16;10.60;99.90
24250;DHT22;12379;49.820;8.648;2023-03-20T07:25:41;10.50;99.90
24250;DHT22;12379;49.820;8.648;2023-03-20T07:28:07;10.40;99.90
24250;DHT22;12379;49.820;8.648;2023-03-20T07:30:33;10.40;99.90
24250;DHT22;12379;49.820;8.648;2023-03-20T07:32:58;10.40;99.90
24250;DHT22;12379;49.820;8.648;2023-03-20T07:35:24;10.40;99.90
24250;DHT22;12379;49.820;8.648;2023-03-20T07:37:50;10.30;99.90
24250;DHT22;12379;49.820;8.648;2023-03-20T07:40:15;10.30;99.90
24250;DHT22;12379;49.820;8.648;2023-03-20T07:42:41;10.50;99.90
24250;DHT22;12379;49.820;8.648;2023-03-20T07:45:07;10.50;99.90
24250;DHT22;12379;49.820;8.648;2023-03-20T07:47:33;10.40;99.90
24250;DHT22;12379;49.820;8.648;2023-03-20T07:49:59;10.50;99.90
24250;DHT22;12379;49.820;8.648;2023-03-20T07:52:25;10.40;99.90
24250;DHT22;12379;49.820;8.648;2023-03-20T07:54:51;10.50;99.90
24250;DHT22;12379;49.820;8.648;2023-03-20T07:57:16;10.50;99.90
24250;DHT22;12379;49.820;8.648;2023-03-20T07:59:42;10.70;99.90
24250;DHT22;12379;49.820;8.648;2023-03-20T08:02:13;10.40;99.90
24250;DHT22;12379;49.820;8.648;2023-03-20T08:04:40;10.40;99.90
24250;DHT22;12379;49.820;8.648;2023-03-20T08:07:06;10.40;99.90
24250;DHT22;12379;49.820;8.648;2023-03-20T08:09:31;10.40;99.90
24250;DHT22;12379;49.820;8.648;2023-03-20T08:11:57;10.30;99.90
24250;DHT22;12379;49.820;8.648;2023-03-20T08:14:22;10.20;99.90
24250;DHT22;12379;49.820;8.648;2023-03-20T08:16:48;10.20;99.90
24250;DHT22;12379;49.820;8.648;2023-03-20T08:19:14;10.10;99.90
24250;DHT22;12379;49.820;8.648;2023-03-20T08:21:39;10.10;99.90
24250;DHT22;12379;49.820;8.648;2023-03-20T08:24:05;10.20;99.90
24250;DHT22;12379;49.820;8.648;2023-03-20T08:26:31;10.40;99.90
24250;DHT22;12379;49.820;8.648;2023-03-20T08:28:56;10.40;99.90
24250;DHT22;12379;49.820;8.648;2023-03-20T08:31:23;10.70;99.90
24250;DHT22;12379;49.820;8.648;2023-03-20T08:33:49;10.80;99.90
24250;DHT22;12379;49.820;8.648;2023-03-20T08:36:15;10.60;99.90
24250;DHT22;12379;49.820;8.648;2023-03-20T08:38:43;10.60;99.90
24250;DHT22;12379;49.820;8.648;2023-03-20T08:41:09;10.70;99.90
24250;DHT22;12379;49.820;8.648;2023-03-20T08:43:35;10.60;99.90
24250;DHT22;12379;49.820;8.648;2023-03-20T08:46:01;10.70;99.90
24250;DHT22;12379;49.820;8.648;2023-03-20T08:48:26;10.50;99.90
24250;DHT22;12379;49.820;8.648;2023-03-20T08:50:52;10.40;99.90
24250;DHT22;12379;49.820;8.648;2023-03-20T08:53:19;10.40;99.90
24250;DHT22;12379;49.820;8.648;2023-03-20T08:55:49;10.40;99.90
24250;DHT22;12379;49.820;8.648;2023-03-20T08:58:15;10.60;99.90
24250;DHT22;12379;49.820;8.648;2023-03-20T09:00:41;10.50;99.90
24250;DHT22;12379;49.820;8.648;2023-03-20T09:03:08;10.30;99.90
24250;DHT22;12379;49.820;8.648;2023-03-20T09:05:35;10.40;99.90
24250;DHT22;12379;49.820;8.648;2023-03-20T09:08:01;10.20;99.90
24250;DHT22;12379;49.820;8.648;2023-03-20T09:10:27;10.20;99.90
24250;DHT22;12379;49.820;8.648;2023-03-20T09:12:52;10.30;99.90
24250;DHT22;12379;49.820;8.648;2023-03-20T09:15:18;10.50;99.90
24250;DHT22;12379;49.820;8.648;2023-03-20T09:17:44;10.60;99.90
24250;DHT22;12379;49.820;8.648;2023-03-20T09:20:10;10.60;99.90
24250;DHT22;12379;49.820;8.648;2023-03-20T09:22:35;10.50;99.90
24250;DHT22;12379;49.820;8.648;2023-03-20T09:25:01;10.40;99.90
24250;DHT22;12379;49.820;8.648;2023-03-20T09:27:27;10.40;99.90
24250;DHT22;12379;49.820;8.648;2023-03-20T09:29:52;10.60;99.90
24250;DHT22;12379;49.820;8.648;2023-03-20T09:32:18;10.70;99.90
24250;DHT22;12379;49.820;8.648;2023-03-20T09:34:44;10.60;99.90
24250;DHT22;12379;49.820;8.648;2023-03-20T09:37:09;10.80;99.90
24250;DHT22;12379;49.820;8.648;2023-03-20T09:39:35;10.80;99.90
24250;DHT22;12379;49.820;8.648;2023-03-20T09:44:55;10.90;99.90
24250;DHT22;12379;49.820;8.648;2023-03-20T09:47:37;10.90;99.90
24250;DHT22;12379;49.820;8.648;2023-03-20T09:50:19;11.00;99.90
24250;DHT22;12379;49.820;8.648;2023-03-20T09:53:13;11.30;99.90
24250;DHT22;12379;49.820;8.648;2023-03-20T09:55:42;11.50;99.90
24250;DHT22;12379;49.820;8.648;2023-03-20T10:00:37;11.90;99.90
24250;DHT22;12379;49.820;8.648;2023-03-20T10:03:12;11.90;99.90
24250;DHT22;12379;49.820;8.648;2023-03-20T10:06:02;12.10;99.90
24250;DHT22;12379;49.820;8.648;2023-03-20T10:08:40;12.40;99.90
24250;DHT22;12379;49.820;8.648;2023-03-20T10:19:23;12.40;99.90
24250;DHT22;12379;49.820;8.648;2023-03-20T10:24:54;13.10;99.90
24250;DHT22;12379;49.820;8.648;2023-03-20T10:32:45;13.80;99.90
24250;DHT22;12379;49.820;8.648;2023-03-20T10:41:09;13.70;99.90
24250;DHT22;12379;49.820;8.648;2023-03-20T10:43:39;13.60;99.90
24250;DHT22;12379;49.820;8.648;2023-03-20T10:46:16;13.10;99.90
24250;DHT22;12379;49.820;8.648;2023-03-20T10:48:59;12.90;99.90
24250;DHT22;12379;49.820;8.648;2023-03-20T10:51:41;12.60;99.90
24250;DHT22;12379;49.820;8.648;2023-03-20T10:54:31;12.90;99.90
24250;DHT22;12379;49.820;8.648;2023-03-20T10:56:59;13.10;99.90
24250;DHT22;12379;49.820;8.648;2023-03-20T10:59:42;13.00;99.90
24250;DHT22;12379;49.820;8.648;2023-03-20T11:02:13;12.90;99.90
24250;DHT22;12379;49.820;8.648;2023-03-20T11:04:40;12.50;99.90
24250;DHT22;12379;49.820;8.648;2023-03-20T11:07:26;12.30;99.90
24250;DHT22;12379;49.820;8.648;2023-03-20T11:12:41;12.20;99.90
24250;DHT22;12379;49.820;8.648;2023-03-20T11:18:03;12.00;99.90
24250;DHT22;12379;49.820;8.648;2023-03-20T11:20:37;12.30;99.90
24250;DHT22;12379;49.820;8.648;2023-03-20T11:23:05;12.70;99.90
24250;DHT22;12379;49.820;8.648;2023-03-20T11:25:57;13.00;99.90
24250;DHT22;12379;49.820;8.648;2023-03-20T11:28:33;13.70;99.90
24250;DHT22;12379;49.820;8.648;2023-03-20T11:34:00;14.30;99.90
24250;DHT22;12379;49.820;8.648;2023-03-20T11:36:28;14.10;99.90
24250;DHT22;12379;49.820;8.648;2023-03-20T11:41:30;13.70;99.90
24250;DHT22;12379;49.820;8.648;2023-03-20T11:43:55;13.80;99.90
24250;DHT22;12379;49.820;8.648;2023-03-20T11:46:22;14.00;99.90
24250;DHT22;12379;49.820;8.648;2023-03-20T11:49:05;14.30;99.90
24250;DHT22;12379;49.820;8.648;2023-03-20T11:51:34;14.30;99.90
24250;DHT22;12379;49.820;8.648;2023-03-20T11:54:02;14.50;99.90
24250;DHT22;12379;49.820;8.648;2023-03-20T11:56:31;14.60;99.90
24250;DHT22;12379;49.820;8.648;2023-03-20T12:01:48;14.40;99.90
24250;DHT22;12379;49.820;8.648;2023-03-20T12:04:32;15.00;99.90
24250;DHT22;12379;49.820;8.648;2023-03-20T12:07:16;14.80;99.90
24250;DHT22;12379;49.820;8.648;2023-03-20T12:09:51;14.50;99.90
24250;DHT22;12379;49.820;8.648;2023-03-20T12:12:51;14.50;99.90
24250;DHT22;12379;49.820;8.648;2023-03-20T12:15:25;14.70;99.90
24250;DHT22;12379;49.820;8.648;2023-03-20T12:18:42;15.00;99.90
24250;DHT22;12379;49.820;8.648;2023-03-20T12:21:09;14.60;99.90
24250;DHT22;12379;49.820;8.648;2023-03-20T12:23:39;15.00;99.90
24250;DHT22;12379;49.820;8.648;2023-03-20T12:26:14;14.60;99.90
24250;DHT22;12379;49.820;8.648;2023-03-20T12:28:49;14.40;99.90
24250;DHT22;12379;49.820;8.648;2023-03-20T12:31:19;14.70;99.90
24250;DHT22;12379;49.820;8.648;2023-03-20T12:34:06;14.80;99.90
24250;DHT22;12379;49.820;8.648;2023-03-20T12:36:42;14.50;99.90
24250;DHT22;12379;49.820;8.648;2023-03-20T12:39:36;14.80;99.90
24250;DHT22;12379;49.820;8.648;2023-03-20T12:50:32;14.20;99.90
24250;DHT22;12379;49.820;8.648;2023-03-20T12:59:07;14.70;99.90
24250;DHT22;12379;49.820;8.648;2023-03-20T13:01:57;14.80;99.90
24250;DHT22;12379;49.820;8.648;2023-03-20T13:04:48;14.50;99.90
24250;DHT22;12379;49.820;8.648;2023-03-20T13:07:21;14.60;99.90
24250;DHT22;12379;49.820;8.648;2023-03-20T13:09:59;14.80;99.90
24250;DHT22;12379;49.820;8.648;2023-03-20T13:15:30;14.70;99.20
24250;DHT22;12379;49.820;8.648;2023-03-20T13:18:16;14.60;98.80
24250;DHT22;12379;49.820;8.648;2023-03-20T13:20:50;14.50;98.80
24250;DHT22;12379;49.820;8.648;2023-03-20T13:26:31;14.70;97.90
24250;DHT22;12379;49.820;8.648;2023-03-20T13:29:11;14.60;97.60
24250;DHT22;12379;49.820;8.648;2023-03-20T13:37:08;14.70;97.10
24250;DHT22;12379;49.820;8.648;2023-03-20T13:40:12;14.70;96.30
24250;DHT22;12379;49.820;8.648;2023-03-20T13:45:42;14.30;96.40
24250;DHT22;12379;49.820;8.648;2023-03-20T13:50:50;13.80;95.70
24250;DHT22;12379;49.820;8.648;2023-03-20T13:56:20;13.90;96.50
24250;DHT22;12379;49.820;8.648;2023-03-20T14:04:31;14.20;95.10
24250;DHT22;12379;49.820;8.648;2023-03-20T14:06:58;14.30;94.90
24250;DHT22;12379;49.820;8.648;2023-03-20T14:09:35;14.50;94.00
24250;DHT22;12379;49.820;8.648;2023-03-20T14:12:07;14.40;94.00
24250;DHT22;12379;49.820;8.648;2023-03-20T14:14:49;14.40;94.20
24250;DHT22;12379;49.820;8.648;2023-03-20T14:17:34;14.60;93.40
24250;DHT22;12379;49.820;8.648;2023-03-20T14:20:11;14.60;92.80
24250;DHT22;12379;49.820;8.648;2023-03-20T14:22:38;14.40;92.20
24250;DHT22;12379;49.820;8.648;2023-03-20T14:25:07;14.20;92.20
24250;DHT22;12379;49.820;8.648;2023-03-20T14:27:57;14.20;92.10
24250;DHT22;12379;49.820;8.648;2023-03-20T14:33:07;14.10;91.30
24250;DHT22;12379;49.820;8.648;2023-03-20T14:35:50;14.10;91.70
24250;DHT22;12379;49.820;8.648;2023-03-20T14:38:26;14.10;92.10
24250;DHT22;12379;49.820;8.648;2023-03-20T14:41:11;14.30;92.10
24250;DHT22;12379;49.820;8.648;2023-03-20T14:43:53;14.10;92.40
24250;DHT22;12379;49.820;8.648;2023-03-20T14:46:29;14.00;92.20
24250;DHT22;12379;49.820;8.648;2023-03-20T14:49:02;14.00;91.50
24250;DHT22;12379;49.820;8.648;2023-03-20T14:51:43;13.90;91.30
24250;DHT22;12379;49.820;8.648;2023-03-20T14:56:50;13.80;91.30
24250;DHT22;12379;49.820;8.648;2023-03-20T14:59:17;13.90;91.10
24250;DHT22;12379;49.820;8.648;2023-03-20T15:01:56;14.00;90.90
24250;DHT22;12379;49.820;8.648;2023-03-20T15:04:37;14.20;90.70
24250;DHT22;12379;49.820;8.648;2023-03-20T15:09:42;14.00;89.10
24250;DHT22;12379;49.820;8.648;2023-03-20T15:12:08;14.00;88.90
24250;DHT22;12379;49.820;8.648;2023-03-20T15:14:43;14.20;89.10
24250;DHT22;12379;49.820;8.648;2023-03-20T15:17:17;14.20;88.10
24250;DHT22;12379;49.820;8.648;2023-03-20T15:19:43;14.20;87.30
24250;DHT22;12379;49.820;8.648;2023-03-20T15:22:17;14.10;86.80
24250;DHT22;12379;49.820;8.648;2023-03-20T15:24:54;14.10;87.30
24250;DHT22;12379;49.820;8.648;2023-03-20T15:27:23;14.20;87.60
24250;DHT22;12379;49.820;8.648;2023-03-20T15:29:52;14.10;87.90
24250;DHT22;12379;49.820;8.648;2023-03-20T15:32:19;14.00;88.10
24250;DHT22;12379;49.820;8.648;2023-03-20T15:34:46;13.90;86.80
24250;DHT22;12379;49.820;8.648;2023-03-20T15:37:19;13.80;87.40
24250;DHT22;12379;49.820;8.648;2023-03-20T15:39:48;13.80;88.50
24250;DHT22;12379;49.820;8.648;2023-03-20T15:42:17;13.70;89.50
24250;DHT22;12379;49.820;8.648;2023-03-20T15:44:47;13.60;89.70
24250;DHT22;12379;49.820;8.648;2023-03-20T15:47:22;13.60;90.00
24250;DHT22;12379;49.820;8.648;2023-03-20T15:49:58;13.50;90.30
24250;DHT22;12379;49.820;8.648;2023-03-20T15:52:40;13.40;89.20
24250;DHT22;12379;49.820;8.648;2023-03-20T15:55:20;13.40;87.50
24250;DHT22;12379;49.820;8.648;2023-03-20T16:00:38;13.40;83.80
24250;DHT22;12379;49.820;8.648;2023-03-20T16:03:09;13.40;83.90
24250;DHT22;12379;49.820;8.648;2023-03-20T16:05:35;13.30;83.10
24250;DHT22;12379;49.820;8.648;2023-03-20T16:10:41;13.20;81.50
24250;DHT22;12379;49.820;8.648;2023-03-20T16:13:14;13.20;82.20
24250;DHT22;12379;49.820;8.648;2023-03-20T16:15:43;13.20;82.80
24250;DHT22;12379;49.820;8.648;2023-03-20T16:18:13;13.10;83.40
24250;DHT22;12379;49.820;8.648;2023-03-20T16:20:46;13.10;83.10
24250;DHT22;12379;49.820;8.648;2023-03-20T16:23:28;13.20;83.40
24250;DHT22;12379;49.820;8.648;2023-03-20T16:25:58;13.20;84.20
24250;DHT22;12379;49.820;8.648;2023-03-20T16:28:26;13.10;83.80
24250;DHT22;12379;49.820;8.648;2023-03-20T16:30:54;13.00;84.50
24250;DHT22;12379;49.820;8.648;2023-03-20T16:33:21;12.90;84.70
24250;DHT22;12379;49.820;8.648;2023-03-20T16:35:48;13.00;85.00
24250;DHT22;12379;49.820;8.648;2023-03-20T16:38:26;12.90;85.50
24250;DHT22;12379;49.820;8.648;2023-03-20T16:41:44;12.70;85.90
24250;DHT22;12379;49.820;8.648;2023-03-20T16:43:46;12.60;86.00
24250;DHT22;12379;49.820;8.648;2023-03-20T16:46:19;12.50;85.70
24250;DHT22;12379;49.820;8.648;2023-03-20T16:48:46;12.40;85.40
24250;DHT22;12379;49.820;8.648;2023-03-20T16:51:20;12.40;85.70
24250;DHT22;12379;49.820;8.648;2023-03-20T16:53:48;12.40;85.70
24250;DHT22;12379;49.820;8.648;2023-03-20T16:56:37;12.20;85.90
24250;DHT22;12379;49.820;8.648;2023-03-20T16:59:09;12.20;86.10
24250;DHT22;12379;49.820;8.648;2023-03-20T17:01:40;12.30;86.70
24250;DHT22;12379;49.820;8.648;2023-03-20T17:04:16;12.20;87.30
24250;DHT22;12379;49.820;8.648;2023-03-20T17:06:48;12.10;88.20
24250;DHT22;12379;49.820;8.648;2023-03-20T17:09:27;12.00;89.50
24250;DHT22;12379;49.820;8.648;2023-03-20T17:12:14;12.00;90.20
24250;DHT22;12379;49.820;8.648;2023-03-20T17:14:40;12.00;90.60
24250;DHT22;12379;49.820;8.648;2023-03-20T17:17:13;11.90;91.10
24250;DHT22;12379;49.820;8.648;2023-03-20T17:19:39;11.90;91.60
24250;DHT22;12379;49.820;8.648;2023-03-20T17:22:18;11.80;92.00
24250;DHT22;12379;49.820;8.648;2023-03-20T17:24:44;11.80;92.40
24250;DHT22;12379;49.820;8.648;2023-03-20T17:27:14;11.70;92.80
24250;DHT22;12379;49.820;8.648;2023-03-20T17:29:41;11.70;93.10
24250;DHT22;12379;49.820;8.648;2023-03-20T17:32:11;11.60;93.60
24250;DHT22;12379;49.820;8.648;2023-03-20T17:34:37;11.60;94.00
24250;DHT22;12379;49.820;8.648;2023-03-20T17:37:04;11.60;94.30
24250;DHT22;12379;49.820;8.648;2023-03-20T17:39:30;11.50;94.70
24250;DHT22;12379;49.820;8.648;2023-03-20T17:41:56;11.50;95.20
24250;DHT22;12379;49.820;8.648;2023-03-20T17:44:21;11.50;95.40
24250;DHT22;12379;49.820;8.648;2023-03-20T17:46:47;11.30;95.70
24250;DHT22;12379;49.820;8.648;2023-03-20T17:49:14;11.40;95.90
24250;DHT22;12379;49.820;8.648;2023-03-20T17:51:41;11.40;96.10
24250;DHT22;12379;49.820;8.648;2023-03-20T17:54:07;11.30;96.10